sensor_id;sensor_type;location;lat;lon;timestamp;P1;durP1;ratioP1;P2;durP2;ratioP2
81896;SDS011;71360;43.506;1.500;2024-01-06T00:00:13;6.07;;;2.80;;
81896;SDS011;71360;43.506;1.500;2024-01-06T00:02:41;7.28;;;2.50;;
81896;SDS011;71360;43.506;1.500;2024-01-06T00:05:06;5.13;;;2.47;;
81896;SDS011;71360;43.506;1.500;2024-01-06T00:07:32;7.03;;;2.40;;
81896;SDS011;71360;43.506;1.500;2024-01-06T00:09:58;6.32;;;2.50;;
81896;SDS011;71360;43.506;1.500;2024-01-06T00:12:23;10.30;;;2.97;;
81896;SDS011;71360;43.506;1.500;2024-01-06T00:14:48;7.80;;;3.30;;
81896;SDS011;71360;43.506;1.500;2024-01-06T00:22:38;8.02;;;3.75;;
81896;SDS011;71360;43.506;1.500;2024-01-06T00:25:03;9.80;;;3.45;;
81896;SDS011;71360;43.506;1.500;2024-01-06T00:30:02;10.85;;;3.92;;
81896;SDS011;71360;43.506;1.500;2024-01-06T00:32:28;11.80;;;4.25;;
81896;SDS011;71360;43.506;1.500;2024-01-06T00:34:54;9.82;;;4.20;;
81896;SDS011;71360;43.506;1.500;2024-01-06T00:37:19;10.53;;;5.13;;
81896;SDS011;71360;43.506;1.500;2024-01-06T00:39:45;12.87;;;4.90;;
81896;SDS011;71360;43.506;1.500;2024-01-06T00:42:10;11.13;;;5.33;;
81896;SDS011;71360;43.506;1.500;2024-01-06T00:44:36;9.88;;;6.03;;
81896;SDS011;71360;43.506;1.500;2024-01-06T00:47:02;10.57;;;5.50;;
81896;SDS011;71360;43.506;1.500;2024-01-06T00:49:27;11.98;;;5.05;;
81896;SDS011;71360;43.506;1.500;2024-01-06T00:51:56;10.83;;;4.63;;
81896;SDS011;71360;43.506;1.500;2024-01-06T00:54:23;10.85;;;4.97;;
81896;SDS011;71360;43.506;1.500;2024-01-06T00:56:49;13.60;;;5.40;;
81896;SDS011;71360;43.506;1.500;2024-01-06T00:59:14;12.20;;;4.50;;
81896;SDS011;71360;43.506;1.500;2024-01-06T01:01:40;11.83;;;5.37;;
81896;SDS011;71360;43.506;1.500;2024-01-06T01:04:05;12.77;;;5.30;;
81896;SDS011;71360;43.506;1.500;2024-01-06T01:06:30;14.37;;;5.10;;
81896;SDS011;71360;43.506;1.500;2024-01-06T01:08:56;10.63;;;5.03;;
81896;SDS011;71360;43.506;1.500;2024-01-06T01:14:27;11.25;;;5.18;;
81896;SDS011;71360;43.506;1.500;2024-01-06T01:16:53;10.40;;;5.33;;
81896;SDS011;71360;43.506;1.500;2024-01-06T01:19:18;10.20;;;5.30;;
81896;SDS011;71360;43.506;1.500;2024-01-06T01:21:43;8.80;;;5.07;;
81896;SDS011;71360;43.506;1.500;2024-01-06T01:24:09;12.25;;;5.25;;
81896;SDS011;71360;43.506;1.500;2024-01-06T01:26:34;12.07;;;4.93;;
81896;SDS011;71360;43.506;1.500;2024-01-06T01:29:00;11.43;;;4.90;;
81896;SDS011;71360;43.506;1.500;2024-01-06T01:31:25;13.50;;;5.17;;
81896;SDS011;71360;43.506;1.500;2024-01-06T01:33:51;10.87;;;4.60;;
81896;SDS011;71360;43.506;1.500;2024-01-06T01:36:16;11.77;;;4.70;;
81896;SDS011;71360;43.506;1.500;2024-01-06T01:38:48;11.40;;;4.70;;
81896;SDS011;71360;43.506;1.500;2024-01-06T01:41:13;10.40;;;4.60;;
81896;SDS011;71360;43.506;1.500;2024-01-06T01:43:39;10.03;;;4.67;;
81896;SDS011;71360;43.506;1.500;2024-01-06T01:46:04;10.50;;;4.40;;
81896;SDS011;71360;43.506;1.500;2024-01-06T01:48:30;11.90;;;4.67;;
81896;SDS011;71360;43.506;1.500;2024-01-06T01:50:58;10.00;;;4.65;;
81896;SDS011;71360;43.506;1.500;2024-01-06T01:53:24;11.83;;;4.97;;
81896;SDS011;71360;43.506;1.500;2024-01-06T01:55:50;13.73;;;4.63;;
81896;SDS011;71360;43.506;1.500;2024-01-06T01:58:16;9.07;;;3.87;;
81896;SDS011;71360;43.506;1.500;2024-01-06T02:00:42;11.77;;;4.40;;
81896;SDS011;71360;43.506;1.500;2024-01-06T02:03:07;11.90;;;3.87;;
81896;SDS011;71360;43.506;1.500;2024-01-06T02:05:34;7.50;;;3.58;;
81896;SDS011;71360;43.506;1.500;2024-01-06T02:08:00;9.57;;;3.50;;
81896;SDS011;71360;43.506;1.500;2024-01-06T02:10:26;10.10;;;3.87;;
81896;SDS011;71360;43.506;1.500;2024-01-06T02:12:51;12.67;;;3.67;;
81896;SDS011;71360;43.506;1.500;2024-01-06T02:15:17;10.10;;;4.25;;
81896;SDS011;71360;43.506;1.500;2024-01-06T02:17:43;12.70;;;4.57;;
81896;SDS011;71360;43.506;1.500;2024-01-06T02:20:11;9.70;;;4.10;;
81896;SDS011;71360;43.506;1.500;2024-01-06T02:22:39;9.48;;;4.05;;
81896;SDS011;71360;43.506;1.500;2024-01-06T02:25:05;10.90;;;4.50;;
81896;SDS011;71360;43.506;1.500;2024-01-06T02:27:37;12.02;;;4.00;;
81896;SDS011;71360;43.506;1.500;2024-01-06T02:30:03;11.38;;;4.10;;
81896;SDS011;71360;43.506;1.500;2024-01-06T02:32:29;9.13;;;3.70;;
81896;SDS011;71360;43.506;1.500;2024-01-06T02:34:55;8.70;;;3.78;;
81896;SDS011;71360;43.506;1.500;2024-01-06T02:37:22;12.10;;;3.90;;
81896;SDS011;71360;43.506;1.500;2024-01-06T02:39:47;13.48;;;3.83;;
81896;SDS011;71360;43.506;1.500;2024-01-06T02:42:13;10.43;;;3.87;;
81896;SDS011;71360;43.506;1.500;2024-01-06T02:44:38;8.00;;;3.77;;
81896;SDS011;71360;43.506;1.500;2024-01-06T02:47:04;9.37;;;3.70;;
81896;SDS011;71360;43.506;1.500;2024-01-06T02:49:30;11.73;;;3.63;;
81896;SDS011;71360;43.506;1.500;2024-01-06T02:51:55;10.30;;;3.63;;
81896;SDS011;71360;43.506;1.500;2024-01-06T02:54:20;6.83;;;3.70;;
81896;SDS011;71360;43.506;1.500;2024-01-06T02:56:46;7.27;;;3.40;;
81896;SDS011;71360;43.506;1.500;2024-01-06T02:59:11;12.07;;;3.77;;
81896;SDS011;71360;43.506;1.500;2024-01-06T03:01:37;8.53;;;3.43;;
81896;SDS011;71360;43.506;1.500;2024-01-06T03:04:02;12.35;;;3.65;;
81896;SDS011;71360;43.506;1.500;2024-01-06T03:06:28;8.30;;;3.40;;
81896;SDS011;71360;43.506;1.500;2024-01-06T03:08:53;8.00;;;3.50;;
81896;SDS011;71360;43.506;1.500;2024-01-06T03:11:18;9.73;;;3.93;;
81896;SDS011;71360;43.506;1.500;2024-01-06T03:13:44;9.67;;;3.53;;
81896;SDS011;71360;43.506;1.500;2024-01-06T03:16:11;6.75;;;3.35;;
81896;SDS011;71360;43.506;1.500;2024-01-06T03:18:36;10.63;;;3.50;;
81896;SDS011;71360;43.506;1.500;2024-01-06T03:21:02;9.60;;;3.90;;
81896;SDS011;71360;43.506;1.500;2024-01-06T03:23:28;7.10;;;3.47;;
81896;SDS011;71360;43.506;1.500;2024-01-06T03:25:55;9.63;;;3.40;;
81896;SDS011;71360;43.506;1.500;2024-01-06T03:28:20;12.33;;;3.73;;
81896;SDS011;71360;43.506;1.500;2024-01-06T03:30:46;10.70;;;3.83;;
81896;SDS011;71360;43.506;1.500;2024-01-06T03:33:11;8.57;;;3.97;;
81896;SDS011;71360;43.506;1.500;2024-01-06T03:35:37;10.18;;;3.50;;
81896;SDS011;71360;43.506;1.500;2024-01-06T03:38:02;9.00;;;3.63;;
81896;SDS011;71360;43.506;1.500;2024-01-06T03:40:28;10.87;;;3.60;;
81896;SDS011;71360;43.506;1.500;2024-01-06T03:42:53;9.97;;;3.67;;
81896;SDS011;71360;43.506;1.500;2024-01-06T03:45:19;8.57;;;3.13;;
81896;SDS011;71360;43.506;1.500;2024-01-06T03:47:44;9.23;;;3.40;;
81896;SDS011;71360;43.506;1.500;2024-01-06T03:50:10;9.37;;;3.20;;
81896;SDS011;71360;43.506;1.500;2024-01-06T03:52:37;13.00;;;3.35;;
81896;SDS011;71360;43.506;1.500;2024-01-06T03:55:03;10.47;;;3.57;;
81896;SDS011;71360;43.506;1.500;2024-01-06T03:57:29;9.32;;;3.65;;
81896;SDS011;71360;43.506;1.500;2024-01-06T03:59:54;9.63;;;3.30;;
81896;SDS011;71360;43.506;1.500;2024-01-06T04:02:20;11.38;;;3.03;;
81896;SDS011;71360;43.506;1.500;2024-01-06T04:04:45;11.40;;;3.10;;
81896;SDS011;71360;43.506;1.500;2024-01-06T04:07:11;9.70;;;3.55;;
81896;SDS011;71360;43.506;1.500;2024-01-06T04:09:46;8.27;;;3.10;;
81896;SDS011;71360;43.506;1.500;2024-01-06T04:12:11;9.52;;;2.80;;
81896;SDS011;71360;43.506;1.500;2024-01-06T04:14:37;11.40;;;3.30;;
81896;SDS011;71360;43.506;1.500;2024-01-06T04:17:02;7.80;;;2.90;;
81896;SDS011;71360;43.506;1.500;2024-01-06T04:19:28;11.52;;;2.72;;
81896;SDS011;71360;43.506;1.500;2024-01-06T04:21:54;11.47;;;3.10;;
81896;SDS011;71360;43.506;1.500;2024-01-06T04:24:20;10.68;;;2.85;;
81896;SDS011;71360;43.506;1.500;2024-01-06T04:26:45;8.43;;;2.80;;
81896;SDS011;71360;43.506;1.500;2024-01-06T04:29:12;9.13;;;2.60;;
81896;SDS011;71360;43.506;1.500;2024-01-06T04:31:37;9.73;;;2.70;;
81896;SDS011;71360;43.506;1.500;2024-01-06T04:34:03;9.02;;;2.60;;
81896;SDS011;71360;43.506;1.500;2024-01-06T04:36:28;10.30;;;2.80;;
81896;SDS011;71360;43.506;1.500;2024-01-06T04:38:54;7.70;;;2.70;;
81896;SDS011;71360;43.506;1.500;2024-01-06T04:41:21;9.77;;;3.05;;
81896;SDS011;71360;43.506;1.500;2024-01-06T04:43:52;9.73;;;3.00;;
81896;SDS011;71360;43.506;1.500;2024-01-06T04:46:18;10.10;;;3.00;;
81896;SDS011;71360;43.506;1.500;2024-01-06T04:48:43;8.43;;;2.93;;
81896;SDS011;71360;43.506;1.500;2024-01-06T04:51:09;11.70;;;3.60;;
81896;SDS011;71360;43.506;1.500;2024-01-06T04:53:35;12.43;;;3.38;;
81896;SDS011;71360;43.506;1.500;2024-01-06T04:56:01;11.88;;;3.67;;
81896;SDS011;71360;43.506;1.500;2024-01-06T04:58:27;9.47;;;3.77;;
81896;SDS011;71360;43.506;1.500;2024-01-06T05:00:52;14.23;;;3.70;;
81896;SDS011;71360;43.506;1.500;2024-01-06T05:03:18;13.23;;;3.80;;
81896;SDS011;71360;43.506;1.500;2024-01-06T05:05:43;10.27;;;4.10;;
81896;SDS011;71360;43.506;1.500;2024-01-06T05:08:09;13.50;;;5.07;;
81896;SDS011;71360;43.506;1.500;2024-01-06T05:10:35;11.73;;;4.50;;
81896;SDS011;71360;43.506;1.500;2024-01-06T05:13:00;15.70;;;5.23;;
81896;SDS011;71360;43.506;1.500;2024-01-06T05:15:25;13.77;;;4.50;;
81896;SDS011;71360;43.506;1.500;2024-01-06T05:17:51;17.57;;;5.40;;
81896;SDS011;71360;43.506;1.500;2024-01-06T05:20:17;14.07;;;5.38;;
81896;SDS011;71360;43.506;1.500;2024-01-06T05:22:42;12.10;;;4.60;;
81896;SDS011;71360;43.506;1.500;2024-01-06T05:25:08;14.00;;;5.00;;
81896;SDS011;71360;43.506;1.500;2024-01-06T05:27:34;11.50;;;5.18;;
81896;SDS011;71360;43.506;1.500;2024-01-06T05:29:59;11.20;;;5.17;;
81896;SDS011;71360;43.506;1.500;2024-01-06T05:32:25;17.63;;;6.00;;
81896;SDS011;71360;43.506;1.500;2024-01-06T05:34:50;12.95;;;5.15;;
81896;SDS011;71360;43.506;1.500;2024-01-06T05:37:16;13.40;;;5.90;;
81896;SDS011;71360;43.506;1.500;2024-01-06T05:39:41;11.03;;;4.40;;
81896;SDS011;71360;43.506;1.500;2024-01-06T05:42:08;10.53;;;5.30;;
81896;SDS011;71360;43.506;1.500;2024-01-06T05:44:36;11.70;;;5.00;;
81896;SDS011;71360;43.506;1.500;2024-01-06T05:47:02;16.35;;;4.72;;
81896;SDS011;71360;43.506;1.500;2024-01-06T05:49:28;13.23;;;4.87;;
81896;SDS011;71360;43.506;1.500;2024-01-06T05:51:53;11.57;;;4.57;;
81896;SDS011;71360;43.506;1.500;2024-01-06T05:54:18;13.63;;;5.07;;
81896;SDS011;71360;43.506;1.500;2024-01-06T05:56:52;10.63;;;4.70;;
81896;SDS011;71360;43.506;1.500;2024-01-06T05:59:17;12.13;;;5.35;;
81896;SDS011;71360;43.506;1.500;2024-01-06T06:01:43;12.20;;;4.60;;
81896;SDS011;71360;43.506;1.500;2024-01-06T06:04:10;15.07;;;4.77;;
81896;SDS011;71360;43.506;1.500;2024-01-06T06:06:36;12.55;;;4.40;;
81896;SDS011;71360;43.506;1.500;2024-01-06T06:09:05;12.85;;;4.60;;
81896;SDS011;71360;43.506;1.500;2024-01-06T06:11:32;13.73;;;5.35;;
81896;SDS011;71360;43.506;1.500;2024-01-06T06:13:58;12.88;;;5.18;;
81896;SDS011;71360;43.506;1.500;2024-01-06T06:22:31;9.40;;;4.47;;
81896;SDS011;71360;43.506;1.500;2024-01-06T06:24:59;10.80;;;5.30;;
81896;SDS011;71360;43.506;1.500;2024-01-06T06:27:25;12.65;;;4.68;;
81896;SDS011;71360;43.506;1.500;2024-01-06T06:29:51;15.55;;;5.28;;
81896;SDS011;71360;43.506;1.500;2024-01-06T06:32:17;13.90;;;5.17;;
81896;SDS011;71360;43.506;1.500;2024-01-06T06:34:42;10.57;;;4.73;;
81896;SDS011;71360;43.506;1.500;2024-01-06T06:37:08;12.02;;;4.72;;
81896;SDS011;71360;43.506;1.500;2024-01-06T06:39:34;10.60;;;4.90;;
81896;SDS011;71360;43.506;1.500;2024-01-06T06:42:00;11.70;;;5.07;;
81896;SDS011;71360;43.506;1.500;2024-01-06T06:44:26;13.35;;;5.30;;
81896;SDS011;71360;43.506;1.500;2024-01-06T06:46:52;10.87;;;5.40;;
81896;SDS011;71360;43.506;1.500;2024-01-06T06:49:17;10.90;;;4.90;;
81896;SDS011;71360;43.506;1.500;2024-01-06T06:51:43;12.77;;;4.60;;
81896;SDS011;71360;43.506;1.500;2024-01-06T06:54:12;10.10;;;4.80;;
81896;SDS011;71360;43.506;1.500;2024-01-06T06:56:39;12.60;;;4.33;;
81896;SDS011;71360;43.506;1.500;2024-01-06T06:59:05;9.38;;;4.65;;
81896;SDS011;71360;43.506;1.500;2024-01-06T07:01:39;12.83;;;5.33;;
81896;SDS011;71360;43.506;1.500;2024-01-06T07:04:05;8.55;;;4.63;;
81896;SDS011;71360;43.506;1.500;2024-01-06T07:06:30;10.60;;;5.13;;
81896;SDS011;71360;43.506;1.500;2024-01-06T07:08:56;11.13;;;4.80;;
81896;SDS011;71360;43.506;1.500;2024-01-06T07:11:22;9.43;;;4.72;;
81896;SDS011;71360;43.506;1.500;2024-01-06T07:13:47;10.93;;;4.97;;
81896;SDS011;71360;43.506;1.500;2024-01-06T07:16:13;8.05;;;4.38;;
81896;SDS011;71360;43.506;1.500;2024-01-06T07:18:38;10.57;;;5.27;;
81896;SDS011;71360;43.506;1.500;2024-01-06T07:21:04;8.90;;;4.67;;
81896;SDS011;71360;43.506;1.500;2024-01-06T07:23:31;8.52;;;3.90;;
81896;SDS011;71360;43.506;1.500;2024-01-06T07:25:57;7.77;;;3.77;;
81896;SDS011;71360;43.506;1.500;2024-01-06T07:28:23;8.23;;;3.92;;
81896;SDS011;71360;43.506;1.500;2024-01-06T07:30:48;9.03;;;4.10;;
81896;SDS011;71360;43.506;1.500;2024-01-06T07:33:14;9.35;;;4.05;;
81896;SDS011;71360;43.506;1.500;2024-01-06T07:38:29;7.28;;;3.90;;
81896;SDS011;71360;43.506;1.500;2024-01-06T07:40:56;8.43;;;3.80;;
81896;SDS011;71360;43.506;1.500;2024-01-06T07:43:21;8.77;;;3.77;;
81896;SDS011;71360;43.506;1.500;2024-01-06T07:45:47;6.20;;;3.40;;
81896;SDS011;71360;43.506;1.500;2024-01-06T07:48:13;6.60;;;3.80;;
81896;SDS011;71360;43.506;1.500;2024-01-06T07:50:40;7.38;;;3.22;;
81896;SDS011;71360;43.506;1.500;2024-01-06T07:53:12;5.80;;;3.15;;
81896;SDS011;71360;43.506;1.500;2024-01-06T08:02:22;6.43;;;2.63;;
81896;SDS011;71360;43.506;1.500;2024-01-06T08:04:47;9.60;;;2.80;;
81896;SDS011;71360;43.506;1.500;2024-01-06T08:07:13;4.80;;;2.33;;
81896;SDS011;71360;43.506;1.500;2024-01-06T08:09:38;5.05;;;2.17;;
81896;SDS011;71360;43.506;1.500;2024-01-06T08:12:04;4.73;;;2.20;;
81896;SDS011;71360;43.506;1.500;2024-01-06T08:14:30;4.10;;;2.10;;
81896;SDS011;71360;43.506;1.500;2024-01-06T08:16:58;5.03;;;2.30;;
81896;SDS011;71360;43.506;1.500;2024-01-06T08:19:24;4.85;;;2.10;;
81896;SDS011;71360;43.506;1.500;2024-01-06T08:21:51;5.53;;;2.30;;
81896;SDS011;71360;43.506;1.500;2024-01-06T08:24:18;5.72;;;2.10;;
81896;SDS011;71360;43.506;1.500;2024-01-06T08:26:43;4.80;;;1.90;;
81896;SDS011;71360;43.506;1.500;2024-01-06T08:29:13;4.47;;;2.25;;
81896;SDS011;71360;43.506;1.500;2024-01-06T08:31:39;4.45;;;2.13;;
81896;SDS011;71360;43.506;1.500;2024-01-06T08:34:09;4.77;;;2.13;;
81896;SDS011;71360;43.506;1.500;2024-01-06T08:36:42;4.40;;;2.05;;
81896;SDS011;71360;43.506;1.500;2024-01-06T08:39:08;5.85;;;2.45;;
81896;SDS011;71360;43.506;1.500;2024-01-06T08:41:33;5.23;;;2.50;;
81896;SDS011;71360;43.506;1.500;2024-01-06T08:43:59;5.05;;;2.50;;
81896;SDS011;71360;43.506;1.500;2024-01-06T08:46:25;6.47;;;2.73;;
81896;SDS011;71360;43.506;1.500;2024-01-06T08:48:50;4.77;;;2.27;;
81896;SDS011;71360;43.506;1.500;2024-01-06T08:51:17;6.35;;;2.47;;
81896;SDS011;71360;43.506;1.500;2024-01-06T08:53:44;7.47;;;2.70;;
81896;SDS011;71360;43.506;1.500;2024-01-06T08:56:12;5.40;;;2.20;;
81896;SDS011;71360;43.506;1.500;2024-01-06T08:58:37;5.55;;;2.45;;
81896;SDS011;71360;43.506;1.500;2024-01-06T09:01:03;6.90;;;2.40;;
81896;SDS011;71360;43.506;1.500;2024-01-06T09:03:29;9.48;;;2.35;;
81896;SDS011;71360;43.506;1.500;2024-01-06T09:05:57;5.50;;;1.90;;
81896;SDS011;71360;43.506;1.500;2024-01-06T09:08:23;5.55;;;2.30;;
81896;SDS011;71360;43.506;1.500;2024-01-06T09:10:51;6.90;;;2.13;;
81896;SDS011;71360;43.506;1.500;2024-01-06T09:13:20;6.90;;;2.40;;
81896;SDS011;71360;43.506;1.500;2024-01-06T09:15:46;6.43;;;2.40;;
81896;SDS011;71360;43.506;1.500;2024-01-06T09:18:12;6.57;;;2.40;;
81896;SDS011;71360;43.506;1.500;2024-01-06T09:20:38;6.73;;;2.53;;
81896;SDS011;71360;43.506;1.500;2024-01-06T09:23:03;7.60;;;2.60;;
81896;SDS011;71360;43.506;1.500;2024-01-06T09:25:29;5.13;;;2.37;;
81896;SDS011;71360;43.506;1.500;2024-01-06T09:27:55;5.60;;;2.23;;
81896;SDS011;71360;43.506;1.500;2024-01-06T09:30:20;5.55;;;2.03;;
81896;SDS011;71360;43.506;1.500;2024-01-06T09:32:45;5.80;;;2.20;;
81896;SDS011;71360;43.506;1.500;2024-01-06T09:35:11;6.07;;;2.10;;
81896;SDS011;71360;43.506;1.500;2024-01-06T09:37:36;5.45;;;1.98;;
81896;SDS011;71360;43.506;1.500;2024-01-06T09:40:02;4.50;;;2.00;;
81896;SDS011;71360;43.506;1.500;2024-01-06T09:42:28;6.07;;;1.97;;
81896;SDS011;71360;43.506;1.500;2024-01-06T09:44:54;5.95;;;2.17;;
81896;SDS011;71360;43.506;1.500;2024-01-06T09:47:19;4.90;;;1.97;;
81896;SDS011;71360;43.506;1.500;2024-01-06T09:49:50;6.45;;;2.28;;
81896;SDS011;71360;43.506;1.500;2024-01-06T09:52:21;5.13;;;2.00;;
81896;SDS011;71360;43.506;1.500;2024-01-06T09:54:51;6.95;;;2.10;;
81896;SDS011;71360;43.506;1.500;2024-01-06T09:57:17;6.68;;;2.20;;
81896;SDS011;71360;43.506;1.500;2024-01-06T09:59:46;4.80;;;2.00;;
81896;SDS011;71360;43.506;1.500;2024-01-06T10:02:15;5.80;;;2.10;;
81896;SDS011;71360;43.506;1.500;2024-01-06T10:04:42;5.43;;;1.90;;
81896;SDS011;71360;43.506;1.500;2024-01-06T10:07:08;7.00;;;2.13;;
81896;SDS011;71360;43.506;1.500;2024-01-06T10:09:37;7.57;;;2.20;;
81896;SDS011;71360;43.506;1.500;2024-01-06T10:12:02;5.43;;;2.10;;
81896;SDS011;71360;43.506;1.500;2024-01-06T10:14:28;5.88;;;2.15;;
81896;SDS011;71360;43.506;1.500;2024-01-06T10:16:54;4.27;;;1.90;;
81896;SDS011;71360;43.506;1.500;2024-01-06T10:19:23;5.85;;;1.92;;
81896;SDS011;71360;43.506;1.500;2024-01-06T10:21:49;7.63;;;2.20;;
81896;SDS011;71360;43.506;1.500;2024-01-06T10:24:16;6.45;;;2.10;;
81896;SDS011;71360;43.506;1.500;2024-01-06T10:26:44;7.63;;;2.17;;
81896;SDS011;71360;43.506;1.500;2024-01-06T10:29:10;6.05;;;2.50;;
81896;SDS011;71360;43.506;1.500;2024-01-06T10:31:36;5.60;;;2.20;;
81896;SDS011;71360;43.506;1.500;2024-01-06T10:34:02;5.30;;;2.27;;
81896;SDS011;71360;43.506;1.500;2024-01-06T10:36:28;5.45;;;2.80;;
81896;SDS011;71360;43.506;1.500;2024-01-06T10:38:54;8.32;;;2.90;;
81896;SDS011;71360;43.506;1.500;2024-01-06T10:41:20;6.87;;;2.73;;
81896;SDS011;71360;43.506;1.500;2024-01-06T10:43:46;7.15;;;2.90;;
81896;SDS011;71360;43.506;1.500;2024-01-06T10:46:13;8.80;;;3.20;;
81896;SDS011;71360;43.506;1.500;2024-01-06T10:48:41;7.18;;;2.85;;
81896;SDS011;71360;43.506;1.500;2024-01-06T10:51:08;6.68;;;2.20;;
81896;SDS011;71360;43.506;1.500;2024-01-06T10:53:35;6.30;;;2.40;;
81896;SDS011;71360;43.506;1.500;2024-01-06T10:56:04;5.32;;;2.45;;
81896;SDS011;71360;43.506;1.500;2024-01-06T10:58:32;5.95;;;2.40;;
81896;SDS011;71360;43.506;1.500;2024-01-06T11:01:02;7.28;;;2.30;;
81896;SDS011;71360;43.506;1.500;2024-01-06T11:03:28;6.65;;;2.50;;
81896;SDS011;71360;43.506;1.500;2024-01-06T11:05:55;8.63;;;2.67;;
81896;SDS011;71360;43.506;1.500;2024-01-06T11:08:22;6.47;;;2.22;;
81896;SDS011;71360;43.506;1.500;2024-01-06T11:10:50;5.90;;;2.22;;
81896;SDS011;71360;43.506;1.500;2024-01-06T11:13:21;8.77;;;2.28;;
81896;SDS011;71360;43.506;1.500;2024-01-06T11:15:48;6.10;;;2.00;;
81896;SDS011;71360;43.506;1.500;2024-01-06T11:18:33;6.70;;;2.43;;
81896;SDS011;71360;43.506;1.500;2024-01-06T11:26:31;5.43;;;2.00;;
81896;SDS011;71360;43.506;1.500;2024-01-06T11:28:59;4.22;;;2.15;;
81896;SDS011;71360;43.506;1.500;2024-01-06T11:31:30;4.97;;;2.10;;
81896;SDS011;71360;43.506;1.500;2024-01-06T11:33:56;5.18;;;2.10;;
81896;SDS011;71360;43.506;1.500;2024-01-06T11:36:22;5.15;;;2.10;;
81896;SDS011;71360;43.506;1.500;2024-01-06T11:38:47;5.77;;;2.30;;
81896;SDS011;71360;43.506;1.500;2024-01-06T11:44:21;5.63;;;2.30;;
81896;SDS011;71360;43.506;1.500;2024-01-06T11:46:47;4.97;;;2.17;;
81896;SDS011;71360;43.506;1.500;2024-01-06T11:49:18;5.25;;;2.20;;
81896;SDS011;71360;43.506;1.500;2024-01-06T11:51:46;7.13;;;2.20;;
81896;SDS011;71360;43.506;1.500;2024-01-06T11:54:11;5.87;;;2.10;;
81896;SDS011;71360;43.506;1.500;2024-01-06T11:56:38;6.13;;;2.47;;
81896;SDS011;71360;43.506;1.500;2024-01-06T11:59:04;6.15;;;2.10;;
81896;SDS011;71360;43.506;1.500;2024-01-06T12:01:37;5.97;;;2.08;;
81896;SDS011;71360;43.506;1.500;2024-01-06T12:04:03;4.77;;;1.80;;
81896;SDS011;71360;43.506;1.500;2024-01-06T12:06:30;5.05;;;1.70;;
81896;SDS011;71360;43.506;1.500;2024-01-06T12:09:09;5.15;;;1.80;;
81896;SDS011;71360;43.506;1.500;2024-01-06T12:11:39;5.72;;;1.73;;
81896;SDS011;71360;43.506;1.500;2024-01-06T12:14:05;4.20;;;1.90;;
81896;SDS011;71360;43.506;1.500;2024-01-06T12:16:31;5.68;;;2.00;;
81896;SDS011;71360;43.506;1.500;2024-01-06T12:18:58;6.40;;;2.38;;
81896;SDS011;71360;43.506;1.500;2024-01-06T12:21:25;5.88;;;2.58;;
81896;SDS011;71360;43.506;1.500;2024-01-06T12:23:52;5.82;;;2.10;;
81896;SDS011;71360;43.506;1.500;2024-01-06T12:26:18;5.27;;;2.10;;
81896;SDS011;71360;43.506;1.500;2024-01-06T12:28:44;5.65;;;2.10;;
81896;SDS011;71360;43.506;1.500;2024-01-06T12:31:11;5.05;;;2.10;;
81896;SDS011;71360;43.506;1.500;2024-01-06T12:33:40;7.40;;;2.53;;
81896;SDS011;71360;43.506;1.500;2024-01-06T12:36:06;6.20;;;2.60;;
81896;SDS011;71360;43.506;1.500;2024-01-06T12:38:34;6.45;;;2.20;;
81896;SDS011;71360;43.506;1.500;2024-01-06T12:41:00;4.57;;;1.87;;
81896;SDS011;71360;43.506;1.500;2024-01-06T12:43:25;5.13;;;2.20;;
81896;SDS011;71360;43.506;1.500;2024-01-06T12:45:52;4.50;;;2.00;;
81896;SDS011;71360;43.506;1.500;2024-01-06T12:48:18;5.57;;;1.60;;
81896;SDS011;71360;43.506;1.500;2024-01-06T12:50:44;4.47;;;1.50;;
81896;SDS011;71360;43.506;1.500;2024-01-06T12:53:09;4.43;;;1.77;;
81896;SDS011;71360;43.506;1.500;2024-01-06T12:55:37;5.35;;;1.70;;
81896;SDS011;71360;43.506;1.500;2024-01-06T12:58:02;5.50;;;1.70;;
81896;SDS011;71360;43.506;1.500;2024-01-06T13:00:29;4.88;;;1.80;;
81896;SDS011;71360;43.506;1.500;2024-01-06T13:02:54;3.87;;;1.60;;
81896;SDS011;71360;43.506;1.500;2024-01-06T13:05:21;5.07;;;1.60;;
81896;SDS011;71360;43.506;1.500;2024-01-06T13:07:47;7.70;;;1.92;;
81896;SDS011;71360;43.506;1.500;2024-01-06T13:10:14;3.63;;;1.40;;
81896;SDS011;71360;43.506;1.500;2024-01-06T13:12:40;4.07;;;1.73;;
81896;SDS011;71360;43.506;1.500;2024-01-06T13:15:05;5.57;;;1.70;;
81896;SDS011;71360;43.506;1.500;2024-01-06T13:17:36;6.25;;;1.67;;
81896;SDS011;71360;43.506;1.500;2024-01-06T13:20:02;5.17;;;1.70;;
81896;SDS011;71360;43.506;1.500;2024-01-06T13:22:29;3.90;;;1.50;;
81896;SDS011;71360;43.506;1.500;2024-01-06T13:24:55;4.30;;;1.60;;
81896;SDS011;71360;43.506;1.500;2024-01-06T13:27:21;7.45;;;1.70;;
81896;SDS011;71360;43.506;1.500;2024-01-06T13:29:46;4.23;;;1.60;;
81896;SDS011;71360;43.506;1.500;2024-01-06T13:32:12;5.00;;;1.60;;
81896;SDS011;71360;43.506;1.500;2024-01-06T13:34:38;4.78;;;1.65;;
81896;SDS011;71360;43.506;1.500;2024-01-06T13:37:04;4.13;;;1.73;;
81896;SDS011;71360;43.506;1.500;2024-01-06T13:39:32;4.78;;;2.00;;
81896;SDS011;71360;43.506;1.500;2024-01-06T13:41:57;10.80;;;3.70;;
81896;SDS011;71360;43.506;1.500;2024-01-06T13:44:23;6.90;;;2.35;;
81896;SDS011;71360;43.506;1.500;2024-01-06T13:46:49;6.57;;;2.20;;
81896;SDS011;71360;43.506;1.500;2024-01-06T13:49:16;6.47;;;1.98;;
81896;SDS011;71360;43.506;1.500;2024-01-06T13:51:42;6.72;;;2.20;;
81896;SDS011;71360;43.506;1.500;2024-01-06T13:54:07;4.97;;;2.23;;
81896;SDS011;71360;43.506;1.500;2024-01-06T13:56:34;4.65;;;2.15;;
81896;SDS011;71360;43.506;1.500;2024-01-06T13:59:00;6.57;;;2.67;;
81896;SDS011;71360;43.506;1.500;2024-01-06T14:01:25;5.57;;;2.30;;
81896;SDS011;71360;43.506;1.500;2024-01-06T14:03:51;5.28;;;2.30;;
81896;SDS011;71360;43.506;1.500;2024-01-06T14:06:23;6.03;;;2.20;;
81896;SDS011;71360;43.506;1.500;2024-01-06T14:08:50;6.90;;;2.40;;
81896;SDS011;71360;43.506;1.500;2024-01-06T14:11:17;5.43;;;2.53;;
81896;SDS011;71360;43.506;1.500;2024-01-06T14:13:43;5.30;;;2.30;;
81896;SDS011;71360;43.506;1.500;2024-01-06T14:16:13;5.35;;;2.50;;
81896;SDS011;71360;43.506;1.500;2024-01-06T14:18:39;4.90;;;2.10;;
81896;SDS011;71360;43.506;1.500;2024-01-06T14:21:04;5.00;;;2.03;;
81896;SDS011;71360;43.506;1.500;2024-01-06T14:23:30;5.50;;;1.80;;
81896;SDS011;71360;43.506;1.500;2024-01-06T14:25:57;6.23;;;1.80;;
81896;SDS011;71360;43.506;1.500;2024-01-06T14:28:23;4.88;;;1.83;;
81896;SDS011;71360;43.506;1.500;2024-01-06T14:30:49;4.17;;;1.60;;
81896;SDS011;71360;43.506;1.500;2024-01-06T14:33:14;5.13;;;1.70;;
81896;SDS011;71360;43.506;1.500;2024-01-06T14:35:39;4.63;;;1.90;;
81896;SDS011;71360;43.506;1.500;2024-01-06T14:38:06;5.57;;;1.83;;
81896;SDS011;71360;43.506;1.500;2024-01-06T14:40:32;4.77;;;1.97;;
81896;SDS011;71360;43.506;1.500;2024-01-06T14:42:57;6.20;;;2.30;;
81896;SDS011;71360;43.506;1.500;2024-01-06T14:45:23;5.97;;;2.22;;
81896;SDS011;71360;43.506;1.500;2024-01-06T14:47:48;7.00;;;2.40;;
81896;SDS011;71360;43.506;1.500;2024-01-06T14:50:15;5.38;;;2.30;;
81896;SDS011;71360;43.506;1.500;2024-01-06T14:52:41;6.13;;;2.50;;
81896;SDS011;71360;43.506;1.500;2024-01-06T14:55:06;4.80;;;2.20;;
81896;SDS011;71360;43.506;1.500;2024-01-06T14:57:32;5.13;;;1.87;;
81896;SDS011;71360;43.506;1.500;2024-01-06T14:59:58;6.07;;;2.00;;
81896;SDS011;71360;43.506;1.500;2024-01-06T15:02:23;4.47;;;2.00;;
81896;SDS011;71360;43.506;1.500;2024-01-06T15:04:49;3.97;;;1.60;;
81896;SDS011;71360;43.506;1.500;2024-01-06T15:07:14;4.13;;;1.73;;
81896;SDS011;71360;43.506;1.500;2024-01-06T15:09:40;5.07;;;1.80;;
81896;SDS011;71360;43.506;1.500;2024-01-06T15:12:09;4.73;;;1.87;;